createdAt,value
2023-04-18T00:01:23.390Z,7.23
2023-04-18T00:03:53.741Z,7.19
2023-04-18T00:06:26.099Z,7.14
2023-04-18T00:08:56.236Z,7.10
2023-04-18T00:11:25.969Z,7.06
2023-04-18T00:13:55.640Z,7.03
2023-04-18T00:16:25.368Z,6.98
2023-04-18T00:18:57.223Z,6.96
2023-04-18T00:21:30.220Z,6.94
2023-04-18T00:23:59.924Z,6.88
2023-04-18T00:26:29.979Z,6.85
2023-04-18T00:29:00.747Z,6.80
2023-04-18T00:31:30.818Z,6.77
2023-04-18T00:34:00.604Z,6.73
2023-04-18T00:36:32.889Z,6.69
2023-04-18T00:39:02.965Z,6.67
2023-04-18T00:41:33.109Z,6.65
2023-04-18T00:44:02.842Z,6.61
2023-04-18T00:46:32.584Z,6.57
2023-04-18T00:49:02.384Z,6.55
2023-04-18T00:51:35.338Z,6.51
2023-04-18T00:54:05.920Z,6.55
2023-04-18T00:56:35.875Z,6.54
2023-04-18T00:59:06.148Z,6.54
2023-04-18T01:01:36.314Z,6.51
2023-04-18T01:04:06.357Z,6.48
2023-04-18T01:06:39.165Z,6.45
2023-04-18T01:09:08.924Z,6.45
2023-04-18T01:11:38.807Z,6.45
2023-04-18T01:14:09.807Z,6.39
2023-04-18T01:16:40.163Z,6.37
2023-04-18T01:19:09.872Z,6.36
2023-04-18T01:21:44.005Z,6.30
2023-04-18T01:24:20.352Z,6.28
2023-04-18T01:26:51.197Z,6.29
2023-04-18T01:29:20.905Z,6.29
2023-04-18T01:31:50.589Z,6.27
2023-04-18T01:34:20.599Z,6.26
2023-04-18T01:36:50.281Z,6.24
2023-04-18T01:39:22.711Z,6.23
2023-04-18T01:41:52.446Z,6.16
2023-04-18T01:44:22.197Z,6.13
2023-04-18T01:46:51.926Z,6.09
2023-04-18T01:49:21.670Z,6.05
2023-04-18T01:51:52.535Z,6.03
2023-04-18T01:54:26.942Z,6.01
2023-04-18T01:56:56.696Z,5.98
2023-04-18T01:59:26.430Z,5.95
2023-04-18T02:01:56.221Z,5.92
2023-04-18T02:04:27.303Z,5.90
2023-04-18T02:06:57.021Z,5.87
2023-04-18T02:09:29.252Z,5.85
2023-04-18T02:11:59.658Z,5.82
2023-04-18T02:14:29.635Z,5.80
2023-04-18T02:17:03.728Z,5.77
2023-04-18T02:19:33.628Z,5.77
2023-04-18T02:22:04.453Z,5.75
2023-04-18T02:24:36.983Z,5.71
2023-04-18T02:27:06.720Z,5.70
2023-04-18T02:29:36.346Z,5.68
2023-04-18T02:32:07.440Z,5.64
2023-04-18T02:34:39.531Z,5.65
2023-04-18T02:37:09.272Z,5.61
2023-04-18T02:39:41.553Z,5.58
2023-04-18T02:42:11.279Z,5.57
2023-04-18T02:44:40.970Z,5.53
2023-04-18T02:47:11.848Z,5.50
2023-04-18T02:49:44.571Z,5.47
2023-04-18T02:52:14.915Z,5.46
2023-04-18T02:54:47.266Z,5.44
2023-04-18T02:57:21.143Z,5.41
2023-04-18T03:00:06.592Z,5.40
2023-04-18T03:03:02.858Z,5.37
2023-04-18T03:05:42.324Z,5.35
2023-04-18T03:08:12.111Z,5.34
2023-04-18T03:10:45.312Z,5.30
2023-04-18T03:13:15.714Z,5.28
2023-04-18T03:15:46.444Z,5.24
2023-04-18T03:18:16.412Z,5.22
2023-04-18T03:20:46.614Z,5.21
2023-04-18T03:23:16.446Z,5.18
2023-04-18T03:25:49.315Z,5.14
2023-04-18T03:28:19.254Z,5.13
2023-04-18T03:30:48.946Z,5.12
2023-04-18T03:33:19.122Z,5.12
2023-04-18T03:35:51.632Z,5.11
2023-04-18T03:38:21.445Z,5.12
2023-04-18T03:40:54.234Z,5.12
2023-04-18T03:43:30.572Z,5.11
2023-04-18T03:46:00.587Z,5.08
2023-04-18T03:48:35.819Z,5.09
2023-04-18T03:51:09.020Z,5.10
2023-04-18T03:53:39.774Z,5.08
2023-04-18T03:56:12.135Z,5.08
2023-04-18T03:58:59.852Z,5.07
2023-04-18T04:01:29.963Z,5.07
2023-04-18T04:03:59.967Z,5.08
2023-04-18T04:06:30.176Z,5.09
2023-04-18T04:09:00.061Z,5.11
2023-04-18T04:11:34.215Z,5.14
2023-04-18T04:14:04.655Z,5.16
2023-04-18T04:16:41.589Z,5.18
2023-04-18T04:19:13.479Z,5.22
2023-04-18T04:21:50.733Z,5.25
2023-04-18T04:24:22.267Z,5.28
2023-04-18T04:26:56.436Z,5.31
2023-04-18T04:29:29.081Z,5.32
2023-04-18T04:32:00.784Z,5.34
2023-04-18T04:34:37.208Z,5.36
2023-04-18T04:37:09.838Z,5.37
2023-04-18T04:39:48.995Z,5.37
2023-04-18T04:42:41.283Z,5.38
2023-04-18T04:45:17.533Z,5.41
2023-04-18T04:47:48.678Z,5.42
2023-04-18T04:50:18.537Z,5.46
2023-04-18T04:52:48.182Z,5.47
2023-04-18T04:55:19.108Z,5.51
2023-04-18T04:57:51.818Z,5.54
2023-04-18T05:00:40.218Z,5.59
2023-04-18T05:03:10.986Z,5.63
2023-04-18T05:05:40.813Z,5.68
2023-04-18T05:08:10.483Z,5.73
2023-04-18T05:10:41.070Z,5.77
2023-04-18T05:13:13.362Z,5.82
2023-04-18T05:15:43.122Z,5.87
2023-04-18T05:18:14.275Z,5.93
2023-04-18T05:20:44.060Z,5.97
2023-04-18T05:23:13.736Z,6.02
2023-04-18T05:25:43.466Z,6.04
2023-04-18T05:28:15.836Z,6.08
2023-04-18T05:30:45.678Z,6.10
2023-04-18T05:33:15.385Z,6.14
2023-04-18T05:35:45.117Z,6.15
2023-04-18T05:38:14.760Z,6.21
2023-04-18T05:40:44.744Z,6.22
2023-04-18T05:43:16.963Z,6.25
2023-04-18T05:45:46.936Z,6.27
2023-04-18T05:48:17.064Z,6.29
2023-04-18T05:50:46.708Z,6.29
2023-04-18T05:53:16.402Z,6.29
2023-04-18T05:55:46.641Z,6.29
2023-04-18T05:58:19.030Z,6.29
2023-04-18T06:00:48.792Z,6.29
2023-04-18T06:03:18.644Z,6.31
2023-04-18T06:05:48.653Z,6.31
2023-04-18T06:08:18.447Z,6.33
2023-04-18T06:10:48.132Z,6.36
2023-04-18T06:13:20.852Z,6.36
2023-04-18T06:15:50.699Z,6.39
2023-04-18T06:18:20.474Z,6.42
2023-04-18T06:20:50.152Z,6.39
2023-04-18T06:23:19.828Z,6.41
2023-04-18T06:25:49.481Z,6.40
2023-04-18T06:28:21.702Z,6.44
2023-04-18T06:30:51.475Z,6.51
2023-04-18T06:33:21.359Z,6.55
2023-04-18T06:35:51.204Z,6.58
2023-04-18T06:38:20.936Z,6.63
2023-04-18T06:40:50.737Z,6.67
2023-04-18T06:43:23.040Z,6.72
2023-04-18T06:45:53.746Z,6.79
2023-04-18T06:48:23.618Z,6.86
2023-04-18T06:50:53.325Z,6.92
2023-04-18T06:53:23.111Z,6.99
2023-04-18T06:55:52.858Z,7.04
2023-04-18T06:58:25.167Z,7.08
2023-04-18T07:00:54.932Z,7.10
2023-04-18T07:03:24.693Z,7.11
2023-04-18T07:05:55.745Z,7.14
2023-04-18T07:08:25.552Z,7.19
2023-04-18T07:10:55.225Z,7.22
2023-04-18T07:13:27.542Z,7.24
2023-04-18T07:15:57.312Z,7.27
2023-04-18T07:18:37.353Z,7.35
2023-04-18T07:21:08.689Z,7.40
2023-04-18T07:23:38.724Z,7.45
2023-04-18T07:26:09.699Z,7.47
2023-04-18T07:28:42.094Z,7.52
2023-04-18T07:31:14.576Z,7.48
2023-04-18T07:33:44.376Z,7.52
2023-04-18T07:36:14.186Z,7.51
2023-04-18T07:38:44.517Z,7.53
2023-04-18T07:41:14.173Z,7.56
2023-04-18T07:43:46.757Z,7.59
2023-04-18T07:46:16.717Z,7.56
2023-04-18T07:48:46.464Z,7.65
2023-04-18T07:51:16.234Z,7.67
2023-04-18T07:53:46.284Z,7.73
2023-04-18T07:56:16.173Z,7.77
2023-04-18T07:58:48.494Z,7.83
2023-04-18T08:01:19.717Z,7.90
2023-04-18T08:03:49.985Z,7.97
2023-04-18T08:06:19.842Z,8.03
2023-04-18T08:08:49.672Z,8.11
2023-04-18T08:11:19.393Z,8.14
2023-04-18T08:13:51.723Z,8.20
2023-04-18T08:16:21.487Z,8.21
2023-04-18T08:18:51.270Z,8.29
2023-04-18T08:21:21.209Z,8.31
2023-04-18T08:23:50.875Z,8.27
2023-04-18T08:26:21.019Z,8.28
2023-04-18T08:28:53.319Z,8.31
2023-04-18T08:31:23.216Z,8.35
2023-04-18T08:33:52.954Z,8.35
2023-04-18T08:36:22.739Z,8.37
2023-04-18T08:38:52.405Z,8.36
2023-04-18T08:41:24.511Z,8.31
2023-04-18T08:43:57.188Z,8.35
2023-04-18T08:46:27.258Z,8.37
2023-04-18T08:48:58.631Z,8.36
2023-04-18T08:51:29.245Z,8.32
2023-04-18T08:54:05.718Z,8.33
2023-04-18T08:56:37.546Z,8.34
2023-04-18T08:59:09.851Z,8.37
2023-04-18T09:02:03.643Z,8.34
2023-04-18T09:04:37.729Z,8.34
2023-04-18T09:07:09.095Z,8.39
2023-04-18T09:09:50.147Z,8.36
2023-04-18T09:12:22.844Z,8.40
2023-04-18T09:14:57.848Z,8.39
2023-04-18T09:17:35.696Z,8.35
2023-04-18T09:20:10.417Z,8.31
2023-04-18T09:22:48.853Z,8.32
2023-04-18T09:25:29.402Z,8.29
2023-04-18T09:28:01.962Z,8.32
2023-04-18T09:30:38.052Z,8.32
2023-04-18T09:33:09.680Z,8.29
2023-04-18T09:35:39.817Z,8.35
2023-04-18T09:38:10.680Z,8.35
2023-04-18T09:40:40.765Z,8.36
2023-04-18T09:43:23.336Z,8.43
2023-04-18T09:45:55.902Z,8.48
2023-04-18T09:48:25.655Z,8.48
2023-04-18T09:50:55.407Z,8.52
2023-04-18T09:53:25.872Z,8.56
2023-04-18T09:55:57.803Z,8.59
2023-04-18T09:58:28.841Z,8.65
2023-04-18T10:01:01.624Z,8.66
2023-04-18T10:03:37.361Z,8.64
2023-04-18T10:06:07.699Z,8.68
2023-04-18T10:08:37.740Z,8.75
2023-04-18T10:11:07.600Z,8.75
2023-04-18T10:13:37.688Z,8.85
2023-04-18T10:16:11.202Z,8.87
2023-04-18T10:18:40.991Z,8.93
2023-04-18T10:21:12.115Z,8.96
2023-04-18T10:23:43.249Z,9.03
2023-04-18T10:26:13.912Z,9.07
2023-04-18T10:28:54.762Z,9.18
2023-04-18T10:31:28.658Z,9.28
2023-04-18T10:36:33.194Z,9.46
2023-04-18T10:39:04.265Z,9.53
2023-04-18T10:41:34.970Z,9.60
2023-04-18T10:44:28.481Z,9.72
2023-04-18T10:47:28.123Z,9.71
2023-04-18T10:50:07.819Z,9.73
2023-04-18T10:52:37.560Z,9.79
2023-04-18T10:55:17.019Z,9.89
2023-04-18T10:57:48.471Z,9.91
2023-04-18T11:00:21.964Z,10.07
2023-04-18T11:02:53.839Z,10.22
2023-04-18T11:05:28.098Z,10.38
2023-04-18T11:07:58.047Z,10.51
2023-04-18T11:10:29.675Z,10.64
2023-04-18T11:13:04.683Z,10.73
2023-04-18T11:15:34.501Z,10.80
2023-04-18T11:18:06.092Z,10.72
2023-04-18T11:20:43.413Z,10.82
2023-04-18T11:23:20.690Z,10.87
2023-04-18T11:25:53.850Z,10.87
2023-04-18T11:28:25.027Z,10.95
2023-04-18T11:30:54.838Z,11.02
2023-04-18T11:33:24.921Z,11.00
2023-04-18T11:35:59.998Z,11.02
2023-04-18T11:38:31.705Z,10.97
2023-04-18T11:41:01.853Z,11.02
2023-04-18T11:43:31.557Z,11.07
2023-04-18T11:46:02.496Z,10.98
2023-04-18T11:48:37.738Z,11.00
2023-04-18T11:51:11.512Z,11.01
2023-04-18T11:53:41.787Z,11.04
2023-04-18T11:56:11.513Z,11.17
2023-04-18T11:58:45.038Z,11.18
2023-04-18T12:01:21.757Z,11.31
2023-04-18T12:04:04.854Z,11.45
2023-04-18T12:06:52.988Z,11.60
2023-04-18T12:09:24.634Z,11.64
2023-04-18T12:12:01.760Z,11.60
2023-04-18T12:14:31.824Z,11.69
2023-04-18T12:17:01.637Z,11.76
2023-04-18T12:19:33.068Z,11.77
2023-04-18T12:22:06.825Z,11.77
2023-04-18T12:24:38.044Z,11.84
2023-04-18T12:27:07.917Z,12.06
2023-04-18T12:29:37.666Z,12.16
2023-04-18T12:32:07.969Z,12.19
2023-04-18T12:34:37.684Z,12.21
2023-04-18T12:37:10.334Z,12.55
2023-04-18T12:39:40.347Z,12.64
2023-04-18T12:42:10.030Z,12.80
2023-04-18T12:44:39.719Z,12.86
2023-04-18T12:47:09.551Z,13.02
2023-04-18T12:49:39.261Z,13.18
2023-04-18T12:52:11.502Z,13.31
2023-04-18T12:54:41.233Z,13.27
2023-04-18T12:57:10.918Z,13.16
2023-04-18T12:59:40.555Z,12.99
2023-04-18T13:02:10.471Z,13.14
2023-04-18T13:04:41.109Z,13.32
2023-04-18T13:07:13.668Z,13.46
2023-04-18T13:09:43.492Z,13.39
2023-04-18T13:12:13.164Z,13.34
2023-04-18T13:14:42.968Z,13.51
2023-04-18T13:17:12.741Z,13.52
2023-04-18T13:19:42.438Z,13.61
2023-04-18T13:22:15.454Z,13.61
2023-04-18T13:24:45.399Z,13.78
2023-04-18T13:27:15.216Z,13.80
2023-04-18T13:29:45.889Z,13.97
2023-04-18T13:32:15.950Z,13.95
2023-04-18T13:34:46.537Z,13.94
2023-04-18T13:37:18.825Z,13.98
2023-04-18T13:39:48.725Z,13.78
2023-04-18T13:42:19.422Z,13.56
2023-04-18T13:44:50.247Z,13.31
2023-04-18T13:47:20.686Z,13.39
2023-04-18T13:49:50.384Z,13.60
2023-04-18T13:52:22.874Z,13.56
2023-04-18T13:54:53.113Z,13.69
2023-04-18T13:57:23.410Z,13.51
2023-04-18T13:59:53.120Z,13.49
2023-04-18T14:02:22.883Z,13.50
2023-04-18T14:04:54.896Z,13.55
2023-04-18T14:07:27.620Z,13.65
2023-04-18T14:09:57.315Z,13.72
2023-04-18T14:12:27.055Z,13.86
2023-04-18T14:14:56.817Z,13.99
2023-04-18T14:17:26.566Z,14.02
2023-04-18T14:19:56.286Z,14.15
2023-04-18T14:22:28.767Z,14.22
2023-04-18T14:24:58.650Z,14.16
2023-04-18T14:27:28.493Z,14.11
2023-04-18T14:29:58.168Z,14.21
2023-04-18T14:32:27.887Z,14.21
2023-04-18T14:34:58.932Z,14.28
2023-04-18T14:37:31.291Z,14.24
2023-04-18T14:40:01.448Z,14.40
2023-04-18T14:42:31.202Z,14.38
2023-04-18T14:45:00.846Z,14.45
2023-04-18T14:47:34.293Z,14.34
2023-04-18T14:50:04.063Z,14.29
2023-04-18T14:52:36.369Z,14.46
2023-04-18T14:55:06.190Z,14.65
2023-04-18T14:57:37.346Z,14.55
2023-04-18T15:00:09.024Z,14.49
2023-04-18T15:02:39.127Z,14.52
2023-04-18T15:05:10.178Z,14.50
2023-04-18T15:07:43.638Z,14.40
2023-04-18T15:10:15.361Z,14.37
2023-04-18T15:12:46.862Z,14.34
2023-04-18T15:15:16.856Z,14.22
2023-04-18T15:17:46.608Z,14.17
2023-04-18T15:20:16.295Z,14.28
2023-04-18T15:22:48.609Z,14.24
2023-04-18T15:25:18.377Z,14.17
2023-04-18T15:27:48.128Z,14.16
2023-04-18T15:30:17.898Z,14.17
2023-04-18T15:32:48.458Z,14.11
2023-04-18T15:35:18.286Z,14.19
2023-04-18T15:37:51.469Z,14.34
2023-04-18T15:40:21.371Z,14.40
2023-04-18T15:42:53.626Z,14.30
2023-04-18T15:45:23.785Z,14.39
2023-04-18T15:47:53.602Z,14.42
2023-04-18T15:50:23.550Z,14.48
2023-04-18T15:52:56.477Z,14.37
2023-04-18T15:55:26.245Z,14.12
2023-04-18T15:57:55.919Z,14.13
2023-04-18T16:00:25.585Z,14.14
2023-04-18T16:02:55.402Z,14.11
2023-04-18T16:05:25.152Z,13.98
2023-04-18T16:07:58.926Z,14.16
2023-04-18T16:10:28.701Z,14.04
2023-04-18T16:12:59.653Z,14.02
2023-04-18T16:15:29.746Z,14.10
2023-04-18T16:17:59.733Z,14.19
2023-04-18T16:20:29.484Z,14.19
2023-04-18T16:23:01.880Z,14.24
2023-04-18T16:25:31.663Z,14.29
2023-04-18T16:28:01.364Z,14.23
2023-04-18T16:30:31.134Z,14.21
2023-04-18T16:33:00.919Z,14.30
2023-04-18T16:35:30.803Z,14.37
2023-04-18T16:38:03.102Z,14.38
2023-04-18T16:40:35.107Z,14.42
2023-04-18T16:43:04.889Z,14.37
2023-04-18T16:45:34.574Z,14.30
2023-04-18T16:48:04.348Z,14.16
2023-04-18T16:50:34.124Z,14.04
2023-04-18T16:53:07.390Z,14.04
2023-04-18T16:55:37.134Z,13.90
2023-04-18T16:58:06.776Z,13.91
2023-04-18T17:00:38.236Z,13.71
2023-04-18T17:03:10.295Z,13.69
2023-04-18T17:05:40.235Z,13.72
2023-04-18T17:08:12.532Z,13.61
2023-04-18T17:10:42.499Z,13.64
2023-04-18T17:13:12.168Z,13.58
2023-04-18T17:15:43.062Z,13.57
2023-04-18T17:18:12.873Z,13.48
2023-04-18T17:20:42.574Z,13.47
2023-04-18T17:23:14.967Z,13.48
2023-04-18T17:25:46.831Z,13.48
2023-04-18T17:28:16.728Z,13.42
2023-04-18T17:30:46.662Z,13.41
2023-04-18T17:33:16.400Z,13.22
2023-04-18T17:35:46.090Z,13.36
2023-04-18T17:38:18.429Z,13.57
2023-04-18T17:40:48.188Z,14.07
2023-04-18T17:43:17.824Z,14.23
2023-04-18T17:45:47.575Z,14.50
2023-04-18T17:48:17.327Z,14.47
2023-04-18T17:50:47.334Z,14.36
2023-04-18T17:53:20.182Z,14.47
2023-04-18T17:55:51.772Z,14.56
2023-04-18T17:58:22.034Z,14.51
2023-04-18T18:00:51.836Z,14.59
2023-04-18T18:03:22.371Z,14.54
2023-04-18T18:05:52.605Z,14.73
2023-04-18T18:08:25.834Z,14.70
2023-04-18T18:10:55.582Z,14.51
2023-04-18T18:13:25.261Z,14.46
2023-04-18T18:15:55.514Z,14.19
2023-04-18T18:18:31.504Z,13.99
2023-04-18T18:21:01.337Z,13.62
2023-04-18T18:23:33.560Z,13.31
2023-04-18T18:26:04.115Z,13.11
2023-04-18T18:28:34.087Z,12.89
2023-04-18T18:31:03.827Z,12.77
2023-04-18T18:33:33.633Z,12.60
2023-04-18T18:36:03.412Z,12.52
2023-04-18T18:38:35.672Z,12.42
2023-04-18T18:41:05.792Z,12.32
2023-04-18T18:43:35.507Z,12.20
2023-04-18T18:46:05.198Z,12.13
2023-04-18T18:48:38.207Z,12.07
2023-04-18T18:51:08.496Z,11.95
2023-04-18T18:53:40.868Z,11.91
2023-04-18T18:56:11.419Z,11.83
2023-04-18T18:58:41.214Z,11.78
2023-04-18T19:01:11.549Z,11.72
2023-04-18T19:03:41.420Z,11.68
2023-04-18T19:06:11.168Z,11.61
2023-04-18T19:08:43.451Z,11.52
2023-04-18T19:11:13.197Z,11.47
2023-04-18T19:13:42.875Z,11.38
2023-04-18T19:16:12.672Z,11.30
2023-04-18T19:18:47.004Z,11.28
2023-04-18T19:21:16.826Z,11.23
2023-04-18T19:23:49.147Z,11.17
2023-04-18T19:26:18.921Z,11.11
2023-04-18T19:28:48.642Z,11.10
2023-04-18T19:31:18.408Z,11.04
2023-04-18T19:33:48.112Z,10.99
2023-04-18T19:36:17.796Z,10.97
2023-04-18T19:38:50.153Z,10.90
2023-04-18T19:41:19.887Z,10.90
2023-04-18T19:43:49.581Z,10.87
2023-04-18T19:46:19.284Z,10.84
2023-04-18T19:48:49.039Z,10.83
2023-04-18T19:51:18.744Z,10.80
2023-04-18T19:53:51.227Z,10.74
2023-04-18T19:56:21.090Z,10.70
2023-04-18T19:58:51.137Z,10.65
2023-04-18T20:01:22.014Z,10.64
2023-04-18T20:03:51.892Z,10.60
2023-04-18T20:06:21.970Z,10.58
2023-04-18T20:08:54.536Z,10.53
2023-04-18T20:11:24.992Z,10.53
2023-04-18T20:13:56.638Z,10.52
2023-04-18T20:16:26.656Z,10.50
2023-04-18T20:18:56.734Z,10.43
2023-04-18T20:21:26.756Z,10.45
2023-04-18T20:23:59.348Z,10.46
2023-04-18T20:26:29.065Z,10.48
2023-04-18T20:28:59.211Z,10.47
2023-04-18T20:31:28.873Z,10.49
2023-04-18T20:33:58.528Z,10.46
2023-04-18T20:36:29.260Z,10.45
2023-04-18T20:39:02.411Z,10.39
2023-04-18T20:41:34.825Z,10.42
2023-04-18T20:44:05.230Z,10.40
2023-04-18T20:46:35.321Z,10.40
2023-04-18T20:49:05.089Z,10.42
2023-04-18T20:51:35.870Z,10.40
2023-04-18T20:54:08.560Z,10.40
2023-04-18T20:56:39.092Z,10.38
2023-04-18T20:59:08.905Z,10.37
2023-04-18T21:01:38.543Z,10.35
2023-04-18T21:04:08.430Z,10.35
2023-04-18T21:06:38.153Z,10.34
2023-04-18T21:09:10.553Z,10.31
2023-04-18T21:11:40.202Z,10.32
2023-04-18T21:14:09.957Z,10.31
2023-04-18T21:16:39.882Z,10.31
2023-04-18T21:19:09.921Z,10.31
2023-04-18T21:21:39.601Z,10.32
2023-04-18T21:24:12.196Z,10.31
2023-04-18T21:26:42.061Z,10.30
2023-04-18T21:29:11.696Z,10.31
2023-04-18T21:31:41.381Z,10.31
2023-04-18T21:34:11.397Z,10.28
2023-04-18T21:36:42.763Z,10.27
2023-04-18T21:39:15.065Z,10.25
2023-04-18T21:41:44.767Z,10.28
2023-04-18T21:44:14.653Z,10.27
2023-04-18T21:46:44.603Z,10.28
2023-04-18T21:49:14.264Z,10.28
2023-04-18T21:51:44.985Z,10.27
2023-04-18T21:54:17.352Z,10.26
2023-04-18T21:56:47.077Z,10.26
2023-04-18T21:59:16.732Z,10.21
2023-04-18T22:01:46.469Z,10.22
2023-04-18T22:04:16.532Z,10.21
2023-04-18T22:06:46.454Z,10.22
2023-04-18T22:09:19.317Z,10.23
2023-04-18T22:11:51.215Z,10.24
2023-04-18T22:14:21.213Z,10.23
2023-04-18T22:16:51.062Z,10.23
2023-04-18T22:19:20.798Z,10.24
2023-04-18T22:21:50.537Z,10.24
2023-04-18T22:24:22.863Z,10.23
2023-04-18T22:26:52.564Z,10.23
2023-04-18T22:29:22.296Z,10.22
2023-04-18T22:31:51.966Z,10.23
2023-04-18T22:34:21.668Z,10.22
2023-04-18T22:36:51.383Z,10.24
2023-04-18T22:39:23.584Z,10.25
2023-04-18T22:41:53.286Z,10.22
2023-04-18T22:44:22.929Z,10.24
2023-04-18T22:46:54.697Z,10.24
2023-04-18T22:49:24.992Z,10.22
2023-04-18T22:51:55.738Z,10.22
2023-04-18T22:54:28.239Z,10.20
2023-04-18T22:56:58.484Z,10.23
2023-04-18T22:59:28.186Z,10.24
2023-04-18T23:01:57.924Z,10.23
2023-04-18T23:04:30.088Z,10.22
2023-04-18T23:06:59.979Z,10.22
2023-04-18T23:09:33.613Z,10.21
2023-04-18T23:12:03.322Z,10.22
2023-04-18T23:14:34.496Z,10.22
2023-04-18T23:17:04.252Z,10.20
2023-04-18T23:19:34.001Z,10.18
2023-04-18T23:22:03.702Z,10.20
2023-04-18T23:24:36.308Z,10.20
2023-04-18T23:27:06.068Z,10.20
2023-04-18T23:29:39.514Z,10.19
2023-04-18T23:32:09.286Z,10.18
2023-04-18T23:34:38.953Z,10.17
2023-04-18T23:37:09.728Z,10.18
2023-04-18T23:39:42.044Z,10.18
2023-04-18T23:42:11.732Z,10.18
2023-04-18T23:44:41.454Z,10.20
2023-04-18T23:47:11.452Z,10.19
2023-04-18T23:49:41.124Z,10.21
2023-04-18T23:52:10.866Z,10.20
2023-04-18T23:54:43.092Z,10.19
2023-04-18T23:57:12.806Z,10.18
2023-04-18T23:59:42.544Z,10.18
